Time;durP1;ratioP1;P1;durP2;ratioP2;P2;SDS_P1;SDS_P2;PMS_P1;PMS_P2;Temp;Humidity;BMP_temperature;BMP_pressure;BME280_temperature;BME280_humidity;BME280_pressure;Samples;Min_cycle;Max_cycle;Signal;HPM_P1;HPM_P2
2021/12/06 00:01:29;;;;;;;41.38;20.45;;;;;;;;;;5072433;28;20519;-70
2021/12/06 00:04:01;;;;;;;34.88;18.10;;;;;;;;;;5063846;28;20056;-70
2021/12/06 00:06:28;;;;;;;37.30;18.42;;;;;;;;;;5071620;28;20078;-70
2021/12/06 00:08:54;;;;;;;37.33;18.10;;;;;;;;;;5071351;28;20045;-70
2021/12/06 00:11:20;;;;;;;34.05;17.05;;;;;;;;;;5070210;28;20047;-70
2021/12/06 00:13:49;;;;;;;33.88;17.15;;;;;;;;;;5071435;28;20072;-70
2021/12/06 00:16:18;;;;;;;40.08;19.00;;;;;;;;;;5072078;28;20059;-70
2021/12/06 00:18:46;;;;;;;37.30;18.98;;;;;;;;;;5071591;28;20071;-70
2021/12/06 00:21:12;;;;;;;33.65;17.67;;;;;;;;;;5071679;28;20371;-70
2021/12/06 00:23:38;;;;;;;36.03;17.83;;;;;;;;;;5071384;28;20044;-70
2021/12/06 00:26:04;;;;;;;37.80;17.98;;;;;;;;;;5072263;28;20045;-70
2021/12/06 00:28:30;;;;;;;34.70;17.48;;;;;;;;;;5071955;28;20042;-70
2021/12/06 00:30:56;;;;;;;33.42;17.33;;;;;;;;;;5071383;28;20262;-70
2021/12/06 00:33:23;;;;;;;35.10;17.85;;;;;;;;;;5071215;28;20162;-70
2021/12/06 00:35:49;;;;;;;31.13;16.23;;;;;;;;;;5071530;28;20079;-70
2021/12/06 00:38:15;;;;;;;33.70;16.77;;;;;;;;;;5071650;28;20075;-70
2021/12/06 00:40:44;;;;;;;32.63;17.38;;;;;;;;;;5070625;28;20041;-70
2021/12/06 00:43:10;;;;;;;33.83;18.23;;;;;;;;;;5070413;28;20036;-70
2021/12/06 00:45:36;;;;;;;38.67;18.60;;;;;;;;;;5071207;28;20558;-70
2021/12/06 00:48:02;;;;;;;36.35;18.55;;;;;;;;;;5071666;28;20048;-70
2021/12/06 00:50:29;;;;;;;37.15;18.15;;;;;;;;;;5071208;28;20040;-70
2021/12/06 00:52:55;;;;;;;32.47;18.25;;;;;;;;;;5071642;28;20105;-70
2021/12/06 00:55:22;;;;;;;33.42;17.63;;;;;;;;;;5071045;28;20085;-70
2021/12/06 00:57:49;;;;;;;33.58;17.60;;;;;;;;;;5070926;28;20044;-70
2021/12/06 01:00:22;;;;;;;38.03;17.27;;;;;;;;;;5071268;28;20512;-70
2021/12/06 01:02:48;;;;;;;35.95;17.42;;;;;;;;;;5071767;28;20040;-70
2021/12/06 01:05:14;;;;;;;33.75;18.05;;;;;;;;;;5071134;28;20036;-70
2021/12/06 01:07:41;;;;;;;34.72;18.25;;;;;;;;;;5071166;28;20040;-70
2021/12/06 01:10:08;;;;;;;37.35;18.75;;;;;;;;;;5070419;28;20039;-70
2021/12/06 01:12:34;;;;;;;37.53;18.88;;;;;;;;;;5069982;28;20118;-70
2021/12/06 01:15:00;;;;;;;35.55;17.80;;;;;;;;;;5071249;28;20049;-70
2021/12/06 01:17:26;;;;;;;35.83;17.42;;;;;;;;;;5071030;28;20048;-70
2021/12/06 01:19:52;;;;;;;36.92;17.42;;;;;;;;;;5070442;28;20112;-70
2021/12/06 01:22:30;;;;;;;37.60;17.63;;;;;;;;;;5071931;28;20462;-70
2021/12/06 01:25:01;;;;;;;36.10;16.60;;;;;;;;;;5075043;28;20047;-69
2021/12/06 01:27:41;;;;;;;38.13;18.02;;;;;;;;;;5075701;28;20494;-70
2021/12/06 01:40:42;;;;;;;46.15;20.60;;;;;;;;;;5074982;28;20075;-70
2021/12/06 01:43:08;;;;;;;40.13;20.10;;;;;;;;;;5074627;28;20056;-70
2021/12/06 01:45:34;;;;;;;44.47;19.35;;;;;;;;;;5075088;28;20040;-70
2021/12/06 01:48:00;;;;;;;44.35;19.65;;;;;;;;;;5074771;28;20044;-70
2021/12/06 01:50:30;;;;;;;42.50;20.50;;;;;;;;;;5074368;28;20376;-70
2021/12/06 01:52:58;;;;;;;43.45;20.27;;;;;;;;;;5074377;28;20045;-70
2021/12/06 01:55:26;;;;;;;41.22;19.20;;;;;;;;;;5074099;28;20116;-70
2021/12/06 01:57:53;;;;;;;42.00;20.45;;;;;;;;;;5074411;28;20033;-70
2021/12/06 02:00:25;;;;;;;44.90;20.92;;;;;;;;;;5074703;28;20041;-70
2021/12/06 02:02:51;;;;;;;45.55;21.63;;;;;;;;;;5074165;28;20040;-70
2021/12/06 02:05:17;;;;;;;42.72;20.48;;;;;;;;;;5073856;28;20437;-70
2021/12/06 02:07:43;;;;;;;48.63;21.73;;;;;;;;;;5074455;28;20044;-70
2021/12/06 02:10:09;;;;;;;42.25;19.55;;;;;;;;;;5074313;28;20044;-70
2021/12/06 02:12:36;;;;;;;46.20;20.33;;;;;;;;;;5073804;28;20559;-70
2021/12/06 02:15:11;;;;;;;42.88;20.98;;;;;;;;;;5073567;28;20040;-70
2021/12/06 02:17:41;;;;;;;46.88;21.25;;;;;;;;;;5072480;28;20040;-70
2021/12/06 02:20:15;;;;;;;47.90;21.40;;;;;;;;;;5073703;28;20075;-70
2021/12/06 02:22:42;;;;;;;46.90;21.67;;;;;;;;;;5072699;28;20048;-70
2021/12/06 02:25:14;;;;;;;48.40;22.05;;;;;;;;;;5072312;28;20115;-70
2021/12/06 02:27:40;;;;;;;43.72;20.75;;;;;;;;;;5065499;28;20047;-70
2021/12/06 02:30:07;;;;;;;46.13;21.30;;;;;;;;;;5073222;28;20418;-70
2021/12/06 02:32:34;;;;;;;51.20;22.42;;;;;;;;;;5072968;28;20536;-70
2021/12/06 02:35:00;;;;;;;47.30;22.13;;;;;;;;;;5072700;28;20051;-70
2021/12/06 02:37:30;;;;;;;46.88;21.63;;;;;;;;;;5071888;28;20454;-69
2021/12/06 02:39:56;;;;;;;49.35;22.13;;;;;;;;;;5073821;28;20123;-70
2021/12/06 02:42:22;;;;;;;49.35;21.27;;;;;;;;;;5071695;28;20441;-70
2021/12/06 02:44:49;;;;;;;47.25;20.77;;;;;;;;;;5073112;28;20486;-70
2021/12/06 02:47:16;;;;;;;52.38;21.10;;;;;;;;;;5062550;28;20064;-70
2021/12/06 02:49:42;;;;;;;46.65;20.92;;;;;;;;;;5073950;28;20045;-70
2021/12/06 02:52:09;;;;;;;48.90;22.77;;;;;;;;;;5073101;28;20518;-70
2021/12/06 02:54:35;;;;;;;54.70;22.70;;;;;;;;;;5072601;28;20082;-70
2021/12/06 02:59:38;;;;;;;50.67;23.02;;;;;;;;;;5073148;28;20051;-70
2021/12/06 03:02:11;;;;;;;57.45;24.30;;;;;;;;;;5071201;28;20064;-70
2021/12/06 03:04:37;;;;;;;59.05;24.42;;;;;;;;;;5065224;28;20094;-69
2021/12/06 03:07:05;;;;;;;56.60;24.10;;;;;;;;;;5070766;28;20112;-70
2021/12/06 03:09:37;;;;;;;59.42;24.20;;;;;;;;;;5068356;28;20044;-70
2021/12/06 03:12:08;;;;;;;58.97;24.35;;;;;;;;;;5070022;28;20047;-70
2021/12/06 03:14:35;;;;;;;60.20;25.05;;;;;;;;;;5073440;28;20124;-70
2021/12/06 03:17:04;;;;;;;55.97;24.30;;;;;;;;;;5072388;28;20039;-70
2021/12/06 03:19:30;;;;;;;55.00;23.52;;;;;;;;;;5069909;28;20094;-70
2021/12/06 03:21:56;;;;;;;57.45;23.88;;;;;;;;;;5072536;28;20036;-70
2021/12/06 03:24:22;;;;;;;56.78;24.58;;;;;;;;;;5069211;28;20410;-70
2021/12/06 03:26:49;;;;;;;57.97;23.55;;;;;;;;;;5070049;28;20098;-70
2021/12/06 03:29:15;;;;;;;54.13;23.35;;;;;;;;;;5068491;28;20032;-70
2021/12/06 03:31:41;;;;;;;59.25;22.98;;;;;;;;;;5068880;28;20102;-70
2021/12/06 03:34:08;;;;;;;61.42;25.10;;;;;;;;;;5069858;28;20043;-70
2021/12/06 03:36:35;;;;;;;59.28;23.40;;;;;;;;;;5071883;28;20040;-70
2021/12/06 03:39:03;;;;;;;57.28;22.83;;;;;;;;;;5069055;28;20028;-70
2021/12/06 03:41:30;;;;;;;57.17;24.77;;;;;;;;;;5067478;28;20178;-71
2021/12/06 03:43:57;;;;;;;58.15;24.55;;;;;;;;;;5070248;28;20028;-70
2021/12/06 03:46:23;;;;;;;65.68;24.58;;;;;;;;;;5070587;28;20041;-70
2021/12/06 03:48:49;;;;;;;69.35;26.17;;;;;;;;;;5071898;28;20039;-70
2021/12/06 03:51:15;;;;;;;60.65;23.80;;;;;;;;;;5071558;28;20040;-70
2021/12/06 03:53:41;;;;;;;61.78;26.17;;;;;;;;;;5072055;28;20383;-70
2021/12/06 03:56:07;;;;;;;65.20;25.80;;;;;;;;;;5072124;28;20041;-70
2021/12/06 03:58:34;;;;;;;69.47;26.80;;;;;;;;;;5072042;28;20490;-70
2021/12/06 04:01:02;;;;;;;61.42;24.50;;;;;;;;;;5071256;28;20455;-70
2021/12/06 04:03:30;;;;;;;63.20;24.45;;;;;;;;;;5071464;28;20549;-70
2021/12/06 04:05:56;;;;;;;74.80;27.67;;;;;;;;;;5072139;28;20123;-70
2021/12/06 04:08:23;;;;;;;63.40;26.08;;;;;;;;;;5071390;28;20554;-70
2021/12/06 04:10:49;;;;;;;74.85;27.52;;;;;;;;;;5071811;28;20123;-70
2021/12/06 04:13:15;;;;;;;73.68;28.88;;;;;;;;;;5072120;28;20128;-71
2021/12/06 04:15:44;;;;;;;70.97;26.20;;;;;;;;;;5070037;28;20413;-70
2021/12/06 04:18:10;;;;;;;78.07;28.80;;;;;;;;;;5071739;28;20040;-70
2021/12/06 04:20:36;;;;;;;71.10;27.77;;;;;;;;;;5071937;28;20045;-70
2021/12/06 04:23:04;;;;;;;73.60;27.15;;;;;;;;;;5071453;28;20032;-70
2021/12/06 04:25:30;;;;;;;76.38;26.65;;;;;;;;;;5071179;28;20040;-70
2021/12/06 04:27:59;;;;;;;71.88;27.60;;;;;;;;;;5071816;28;20122;-70
2021/12/06 04:30:26;;;;;;;75.45;27.15;;;;;;;;;;5072012;28;20055;-70
2021/12/06 04:32:53;;;;;;;77.50;28.92;;;;;;;;;;5071642;28;20510;-70
2021/12/06 04:35:19;;;;;;;72.28;27.50;;;;;;;;;;5071206;28;20127;-70
2021/12/06 04:37:45;;;;;;;78.80;29.42;;;;;;;;;;5070994;28;20440;-70
2021/12/06 04:40:11;;;;;;;74.00;27.23;;;;;;;;;;5071353;28;20097;-69
2021/12/06 04:42:38;;;;;;;79.28;28.35;;;;;;;;;;5071477;28;20505;-70
2021/12/06 04:45:04;;;;;;;73.93;27.30;;;;;;;;;;5068653;28;20037;-70
2021/12/06 04:47:30;;;;;;;68.25;27.00;;;;;;;;;;5071224;28;20123;-70
2021/12/06 04:49:56;;;;;;;78.53;28.67;;;;;;;;;;5070897;28;20044;-70
2021/12/06 04:52:23;;;;;;;75.43;28.75;;;;;;;;;;5070490;28;20209;-70
2021/12/06 04:54:54;;;;;;;75.80;27.40;;;;;;;;;;5071763;28;20123;-70
2021/12/06 04:57:25;;;;;;;70.85;27.52;;;;;;;;;;5070602;28;20028;-70
2021/12/06 04:59:53;;;;;;;70.70;26.20;;;;;;;;;;5070660;28;20040;-70
2021/12/06 05:02:22;;;;;;;76.28;27.35;;;;;;;;;;5077842;28;20497;-70
2021/12/06 05:04:51;;;;;;;74.85;27.33;;;;;;;;;;5073498;28;20405;-70
2021/12/06 05:07:25;;;;;;;76.88;27.45;;;;;;;;;;5063724;28;20490;-70
2021/12/06 05:09:51;;;;;;;73.13;26.60;;;;;;;;;;5111563;22;20082;-65
2021/12/06 05:12:18;;;;;;;81.88;28.25;;;;;;;;;;5098998;28;20453;-65
2021/12/06 05:14:44;;;;;;;83.25;28.15;;;;;;;;;;5087464;28;22002;-65
2021/12/06 05:17:10;;;;;;;81.07;29.58;;;;;;;;;;5093539;28;20047;-65
2021/12/06 05:19:36;;;;;;;73.93;29.30;;;;;;;;;;5111724;28;20032;-65
2021/12/06 05:22:03;;;;;;;79.53;29.13;;;;;;;;;;5095060;28;20051;-65
2021/12/06 05:24:29;;;;;;;81.35;29.63;;;;;;;;;;5109370;28;20092;-65
2021/12/06 05:26:56;;;;;;;83.45;29.35;;;;;;;;;;5110823;28;20040;-65
2021/12/06 05:29:27;;;;;;;80.13;29.02;;;;;;;;;;5110966;28;20114;-65
2021/12/06 05:31:56;;;;;;;75.47;28.15;;;;;;;;;;5109733;28;20065;-65
2021/12/06 05:34:30;;;;;;;84.35;28.83;;;;;;;;;;5093211;28;20050;-65
2021/12/06 05:36:56;;;;;;;80.60;29.80;;;;;;;;;;5099604;28;20040;-65
2021/12/06 05:39:22;;;;;;;80.10;29.60;;;;;;;;;;5109342;28;20039;-65
2021/12/06 05:41:49;;;;;;;81.30;30.20;;;;;;;;;;5096755;28;20036;-66
2021/12/06 05:44:15;;;;;;;85.93;30.42;;;;;;;;;;5096948;28;20039;-64
2021/12/06 05:46:41;;;;;;;88.70;31.42;;;;;;;;;;5074294;28;20048;-64
2021/12/06 05:49:07;;;;;;;92.40;29.15;;;;;;;;;;5079282;28;20119;-65
2021/12/06 05:51:33;;;;;;;89.30;29.83;;;;;;;;;;5102726;28;20115;-65
2021/12/06 05:53:59;;;;;;;87.88;30.42;;;;;;;;;;5111043;28;20560;-65
2021/12/06 05:56:25;;;;;;;80.15;29.85;;;;;;;;;;5091483;28;20048;-65
2021/12/06 05:58:51;;;;;;;84.82;29.45;;;;;;;;;;5109340;28;20104;-65
2021/12/06 06:01:17;;;;;;;82.63;29.77;;;;;;;;;;5093091;28;20117;-64
2021/12/06 06:03:43;;;;;;;82.43;29.48;;;;;;;;;;5111665;28;20048;-65
2021/12/06 06:06:09;;;;;;;83.25;30.10;;;;;;;;;;5108638;28;20040;-65
2021/12/06 06:08:35;;;;;;;81.85;29.88;;;;;;;;;;5112769;28;20036;-65
2021/12/06 06:11:00;;;;;;;75.68;28.40;;;;;;;;;;5114464;28;20032;-65
2021/12/06 06:13:26;;;;;;;81.90;30.25;;;;;;;;;;5112810;28;20039;-64
2021/12/06 06:15:55;;;;;;;72.72;27.90;;;;;;;;;;5106121;28;20410;-65
2021/12/06 06:18:21;;;;;;;79.75;29.08;;;;;;;;;;5094956;28;20051;-65
2021/12/06 06:20:51;;;;;;;69.72;27.67;;;;;;;;;;5104473;28;20056;-65
2021/12/06 06:23:18;;;;;;;67.85;27.60;;;;;;;;;;5111857;28;20032;-65
2021/12/06 06:25:44;;;;;;;69.00;26.40;;;;;;;;;;5114156;28;20097;-65
2021/12/06 06:28:10;;;;;;;68.82;25.60;;;;;;;;;;5114743;28;20423;-65
2021/12/06 06:30:36;;;;;;;72.95;27.35;;;;;;;;;;5091583;28;20039;-65
2021/12/06 06:33:02;;;;;;;79.82;27.00;;;;;;;;;;5094309;28;20036;-64
2021/12/06 06:35:30;;;;;;;71.07;28.60;;;;;;;;;;5111425;28;20046;-64
2021/12/06 06:37:56;;;;;;;67.10;26.23;;;;;;;;;;5109575;28;20047;-65
2021/12/06 06:40:22;;;;;;;64.97;25.15;;;;;;;;;;5114619;28;20047;-65
2021/12/06 06:42:48;;;;;;;72.88;27.25;;;;;;;;;;5096345;28;20543;-64
2021/12/06 06:45:16;;;;;;;63.10;25.95;;;;;;;;;;5101708;28;20505;-65
2021/12/06 06:47:42;;;;;;;68.22;26.40;;;;;;;;;;5078035;28;20079;-65
2021/12/06 06:50:08;;;;;;;72.65;26.50;;;;;;;;;;5113280;28;20500;-64
2021/12/06 06:52:34;;;;;;;66.97;25.90;;;;;;;;;;5111472;28;20178;-65
2021/12/06 06:55:03;;;;;;;67.47;26.38;;;;;;;;;;5108058;28;20047;-64
2021/12/06 06:57:29;;;;;;;71.13;26.75;;;;;;;;;;5112842;28;20169;-64
2021/12/06 06:59:55;;;;;;;66.63;25.30;;;;;;;;;;5113837;28;20031;-65
2021/12/06 07:02:21;;;;;;;63.60;25.00;;;;;;;;;;5112739;28;20038;-65
2021/12/06 07:04:47;;;;;;;70.43;25.83;;;;;;;;;;5113622;28;20036;-64
2021/12/06 07:07:13;;;;;;;64.85;23.98;;;;;;;;;;5095689;28;20118;-64
2021/12/06 07:09:42;;;;;;;68.38;24.10;;;;;;;;;;5113002;28;20036;-65
2021/12/06 07:12:13;;;;;;;61.85;23.35;;;;;;;;;;5103666;28;20497;-64
2021/12/06 07:14:39;;;;;;;58.28;23.00;;;;;;;;;;5112047;28;20393;-65
2021/12/06 07:17:06;;;;;;;59.03;22.85;;;;;;;;;;5102698;28;20036;-65
2021/12/06 07:19:32;;;;;;;60.10;24.35;;;;;;;;;;5108104;28;20059;-65
2021/12/06 07:21:59;;;;;;;66.68;25.08;;;;;;;;;;5113793;28;20038;-64
2021/12/06 07:24:25;;;;;;;58.38;23.50;;;;;;;;;;5111890;28;20530;-64
2021/12/06 07:26:51;;;;;;;66.18;25.80;;;;;;;;;;5104783;28;20043;-64
2021/12/06 07:29:17;;;;;;;66.63;24.15;;;;;;;;;;5104355;28;20039;-65
2021/12/06 07:31:43;;;;;;;66.05;23.88;;;;;;;;;;5113046;28;20039;-65
2021/12/06 07:34:09;;;;;;;83.78;26.58;;;;;;;;;;5108973;28;20051;-65
2021/12/06 07:36:35;;;;;;;81.15;27.20;;;;;;;;;;5112903;28;20481;-65
2021/12/06 07:39:01;;;;;;;176.65;37.45;;;;;;;;;;5112132;28;20114;-65
2021/12/06 07:41:28;;;;;;;66.93;25.13;;;;;;;;;;5103062;28;20383;-65
2021/12/06 07:43:55;;;;;;;66.70;27.08;;;;;;;;;;5109266;28;20043;-65
2021/12/06 07:46:21;;;;;;;57.35;22.67;;;;;;;;;;5109727;27;20043;-65
2021/12/06 07:48:52;;;;;;;63.70;24.75;;;;;;;;;;5096011;28;20042;-65
2021/12/06 07:51:18;;;;;;;55.55;21.92;;;;;;;;;;5108874;28;20050;-65
2021/12/06 07:53:44;;;;;;;58.85;24.17;;;;;;;;;;5112481;28;20454;-65
2021/12/06 07:56:10;;;;;;;133.07;30.40;;;;;;;;;;5112336;28;20122;-65
2021/12/06 07:58:36;;;;;;;68.50;24.70;;;;;;;;;;5110698;28;20509;-65
2021/12/06 08:01:03;;;;;;;63.85;22.65;;;;;;;;;;5090531;28;20036;-65
2021/12/06 08:03:30;;;;;;;113.53;29.50;;;;;;;;;;5108827;28;20046;-65
2021/12/06 08:05:58;;;;;;;53.97;20.80;;;;;;;;;;5108967;28;20039;-65
2021/12/06 08:08:25;;;;;;;52.55;21.27;;;;;;;;;;5105219;28;20073;-65
2021/12/06 08:11:04;;;;;;;53.10;21.90;;;;;;;;;;5110819;28;20084;-65
2021/12/06 08:13:31;;;;;;;57.53;23.27;;;;;;;;;;5098124;28;20052;-65
2021/12/06 08:15:59;;;;;;;56.35;22.52;;;;;;;;;;5112646;28;20078;-65
2021/12/06 08:18:25;;;;;;;65.22;25.77;;;;;;;;;;5112321;28;20035;-65
2021/12/06 08:20:52;;;;;;;61.08;23.90;;;;;;;;;;5109697;28;20481;-66
2021/12/06 08:23:18;;;;;;;63.13;24.55;;;;;;;;;;5112222;28;20089;-65
2021/12/06 08:25:48;;;;;;;66.90;25.08;;;;;;;;;;5110199;28;20032;-65
2021/12/06 08:28:15;;;;;;;71.70;26.95;;;;;;;;;;5093811;28;20073;-65
2021/12/06 08:30:41;;;;;;;75.45;27.80;;;;;;;;;;5104679;28;20121;-65
2021/12/06 08:33:08;;;;;;;76.00;28.92;;;;;;;;;;5110868;28;20031;-65
2021/12/06 08:35:39;;;;;;;79.28;28.48;;;;;;;;;;5109388;28;20071;-64
2021/12/06 08:38:05;;;;;;;88.95;32.42;;;;;;;;;;5107665;28;20119;-66
2021/12/06 08:40:31;;;;;;;90.60;33.10;;;;;;;;;;5093562;28;20047;-63
2021/12/06 08:42:58;;;;;;;89.88;34.15;;;;;;;;;;5106714;28;20465;-64
2021/12/06 08:45:26;;;;;;;97.03;34.10;;;;;;;;;;5082592;28;20062;-63
2021/12/06 08:47:52;;;;;;;100.00;34.75;;;;;;;;;;5111969;28;20046;-63
2021/12/06 08:50:19;;;;;;;106.50;39.15;;;;;;;;;;5111645;28;20035;-64
2021/12/06 08:52:45;;;;;;;99.68;38.60;;;;;;;;;;5107002;28;20119;-63
2021/12/06 08:55:12;;;;;;;104.60;35.72;;;;;;;;;;5092573;28;20036;-63
2021/12/06 08:57:38;;;;;;;100.03;35.28;;;;;;;;;;5073540;28;20051;-63
2021/12/06 09:00:12;;;;;;;76.88;30.42;;;;;;;;;;5105174;28;20131;-63
2021/12/06 09:02:39;;;;;;;86.38;31.13;;;;;;;;;;5104056;28;20054;-63
2021/12/06 09:05:05;;;;;;;69.30;27.60;;;;;;;;;;5111626;28;20088;-64
2021/12/06 09:07:31;;;;;;;70.60;27.85;;;;;;;;;;5110617;28;20055;-63
2021/12/06 09:09:57;;;;;;;61.30;24.75;;;;;;;;;;5111645;28;20043;-63
2021/12/06 09:12:25;;;;;;;55.38;22.73;;;;;;;;;;5110460;28;20509;-63
2021/12/06 09:14:52;;;;;;;46.47;19.00;;;;;;;;;;5092029;28;20032;-63
2021/12/06 09:17:18;;;;;;;44.13;18.58;;;;;;;;;;5102404;28;20116;-63
2021/12/06 09:19:45;;;;;;;50.05;20.35;;;;;;;;;;5111087;28;20032;-63
2021/12/06 09:22:11;;;;;;;59.05;23.33;;;;;;;;;;5093298;28;20123;-63
2021/12/06 09:24:37;;;;;;;53.42;21.08;;;;;;;;;;5111544;28;20489;-64
2021/12/06 09:27:04;;;;;;;58.75;21.65;;;;;;;;;;5102654;28;20038;-63
2021/12/06 09:29:32;;;;;;;59.88;23.77;;;;;;;;;;5109278;28;20038;-63
2021/12/06 09:31:59;;;;;;;61.72;23.92;;;;;;;;;;5110357;28;20101;-64
2021/12/06 09:34:26;;;;;;;59.33;23.85;;;;;;;;;;5107475;28;20071;-64
2021/12/06 09:36:52;;;;;;;57.65;22.73;;;;;;;;;;5100807;28;20442;-64
2021/12/06 09:39:18;;;;;;;55.65;22.88;;;;;;;;;;5111338;28;20058;-63
2021/12/06 09:41:44;;;;;;;59.70;24.40;;;;;;;;;;5110231;28;20119;-64
2021/12/06 09:44:10;;;;;;;64.53;26.75;;;;;;;;;;5112878;28;20059;-63
2021/12/06 09:46:38;;;;;;;53.55;22.25;;;;;;;;;;5112690;28;20044;-63
2021/12/06 09:49:07;;;;;;;51.45;21.65;;;;;;;;;;5109775;28;20050;-63
2021/12/06 09:51:33;;;;;;;40.08;17.42;;;;;;;;;;5112296;28;20107;-63
2021/12/06 09:53:59;;;;;;;44.28;19.70;;;;;;;;;;5115022;28;20032;-63
2021/12/06 09:56:34;;;;;;;44.83;19.67;;;;;;;;;;5113099;28;20040;-64
2021/12/06 09:59:01;;;;;;;40.83;19.65;;;;;;;;;;5106679;28;20032;-63
2021/12/06 10:01:30;;;;;;;47.80;20.55;;;;;;;;;;5095192;28;20063;-63
2021/12/06 10:03:58;;;;;;;40.20;18.30;;;;;;;;;;5114759;28;20047;-63
2021/12/06 10:06:26;;;;;;;51.30;21.67;;;;;;;;;;5108507;28;20032;-64
2021/12/06 10:08:53;;;;;;;36.03;15.98;;;;;;;;;;5110615;28;20047;-64
2021/12/06 10:11:20;;;;;;;40.42;17.70;;;;;;;;;;5101145;28;20045;-63
2021/12/06 10:13:46;;;;;;;41.40;17.48;;;;;;;;;;5105867;28;20043;-63
2021/12/06 10:16:13;;;;;;;40.50;17.70;;;;;;;;;;5095451;28;20044;-64
2021/12/06 10:18:40;;;;;;;40.72;19.27;;;;;;;;;;5099813;28;20593;-63
2021/12/06 10:21:07;;;;;;;40.63;19.23;;;;;;;;;;5113148;28;20197;-63
2021/12/06 10:23:37;;;;;;;39.65;17.40;;;;;;;;;;5111432;28;20580;-63
2021/12/06 10:26:03;;;;;;;36.72;17.17;;;;;;;;;;5113478;28;20039;-63
2021/12/06 10:28:31;;;;;;;36.92;16.27;;;;;;;;;;5114492;28;20040;-63
2021/12/06 10:31:02;;;;;;;38.55;18.23;;;;;;;;;;5107266;28;20040;-63
2021/12/06 10:33:30;;;;;;;44.15;16.50;;;;;;;;;;5114381;28;20043;-63
2021/12/06 10:35:58;;;;;;;32.42;15.43;;;;;;;;;;5095689;28;20078;-64
2021/12/06 10:38:26;;;;;;;36.10;16.80;;;;;;;;;;5113668;28;20507;-63
2021/12/06 10:40:56;;;;;;;41.95;17.30;;;;;;;;;;5104206;28;20108;-63
2021/12/06 10:43:22;;;;;;;41.22;18.67;;;;;;;;;;5091555;28;20389;-63
2021/12/06 10:45:49;;;;;;;40.80;17.58;;;;;;;;;;5110132;28;20050;-63
2021/12/06 10:48:20;;;;;;;43.45;17.88;;;;;;;;;;5087444;28;20123;-63
2021/12/06 10:50:52;;;;;;;41.38;18.15;;;;;;;;;;5112121;28;20039;-64
2021/12/06 10:53:19;;;;;;;42.58;19.08;;;;;;;;;;5114126;28;20044;-63
2021/12/06 10:55:46;;;;;;;51.90;20.55;;;;;;;;;;5109916;28;20554;-64
2021/12/06 10:58:14;;;;;;;44.53;19.85;;;;;;;;;;5093843;28;20404;-63
2021/12/06 11:00:43;;;;;;;54.13;21.42;;;;;;;;;;5100350;27;20119;-63
2021/12/06 11:03:32;;;;;;;51.20;20.77;;;;;;;;;;5108634;28;20039;-64
2021/12/06 11:06:04;;;;;;;50.60;19.92;;;;;;;;;;5094958;28;20051;-64
2021/12/06 11:08:31;;;;;;;43.15;17.23;;;;;;;;;;5102837;28;20075;-65
2021/12/06 11:10:59;;;;;;;38.60;17.00;;;;;;;;;;5107815;28;20039;-64
2021/12/06 11:13:27;;;;;;;35.97;16.77;;;;;;;;;;5111451;22;22411;-68
2021/12/06 11:15:55;;;;;;;35.85;16.55;;;;;;;;;;5062562;28;20410;-68
2021/12/06 11:18:33;;;;;;;38.65;16.45;;;;;;;;;;5065009;28;20666;-68
2021/12/06 11:21:00;;;;;;;33.40;13.63;;;;;;;;;;5065221;28;20040;-68
2021/12/06 11:23:26;;;;;;;33.20;14.82;;;;;;;;;;5062622;28;20384;-67
2021/12/06 11:25:59;;;;;;;31.55;14.60;;;;;;;;;;5071108;28;20055;-68
2021/12/06 11:28:29;;;;;;;35.38;14.85;;;;;;;;;;5071306;28;20039;-68
2021/12/06 11:31:04;;;;;;;37.97;17.48;;;;;;;;;;5070143;28;20060;-68
2021/12/06 11:33:31;;;;;;;38.45;15.45;;;;;;;;;;5070136;28;20055;-67
2021/12/06 11:35:57;;;;;;;32.45;15.60;;;;;;;;;;5065001;28;20128;-69
2021/12/06 11:38:23;;;;;;;37.85;15.65;;;;;;;;;;5071981;28;20397;-68
2021/12/06 11:40:49;;;;;;;37.72;15.77;;;;;;;;;;5052556;28;20041;-69
2021/12/06 11:43:17;;;;;;;40.13;16.33;;;;;;;;;;5072429;28;20445;-68
2021/12/06 11:45:50;;;;;;;37.42;16.85;;;;;;;;;;5072177;28;20379;-68
2021/12/06 11:48:22;;;;;;;38.63;16.23;;;;;;;;;;5072221;28;20478;-68
2021/12/06 11:50:52;;;;;;;38.33;16.27;;;;;;;;;;5072039;28;20055;-68
2021/12/06 11:53:19;;;;;;;41.42;16.92;;;;;;;;;;5072096;28;20041;-68
2021/12/06 11:55:47;;;;;;;41.00;16.40;;;;;;;;;;5071644;28;20038;-69
2021/12/06 11:58:28;;;;;;;38.28;16.13;;;;;;;;;;5071874;28;20040;-68
2021/12/06 12:01:12;;;;;;;46.42;16.85;;;;;;;;;;5071866;28;20043;-68
2021/12/06 12:03:39;;;;;;;40.35;16.20;;;;;;;;;;5071215;28;20521;-68
2021/12/06 12:06:24;;;;;;;41.55;16.85;;;;;;;;;;5071602;28;20041;-68
2021/12/06 12:09:01;;;;;;;40.42;17.15;;;;;;;;;;5072007;28;20084;-68
2021/12/06 12:11:27;;;;;;;42.95;17.63;;;;;;;;;;5070707;28;20048;-69
2021/12/06 12:13:56;;;;;;;43.63;16.75;;;;;;;;;;5068556;28;20047;-68
2021/12/06 12:16:22;;;;;;;45.53;17.50;;;;;;;;;;5071642;28;20053;-69
2021/12/06 12:18:48;;;;;;;47.13;19.00;;;;;;;;;;5071228;28;20065;-69
2021/12/06 12:21:15;;;;;;;44.50;18.02;;;;;;;;;;5071526;28;20502;-68
2021/12/06 12:23:42;;;;;;;43.42;19.52;;;;;;;;;;5071517;28;20414;-69
2021/12/06 12:26:12;;;;;;;54.13;21.05;;;;;;;;;;5071989;28;20075;-69
2021/12/06 12:28:51;;;;;;;43.88;18.98;;;;;;;;;;5071282;28;20094;-69
2021/12/06 12:31:17;;;;;;;41.92;18.42;;;;;;;;;;5061247;28;20043;-68
2021/12/06 12:33:43;;;;;;;48.22;19.70;;;;;;;;;;5071324;28;20592;-69
2021/12/06 12:36:13;;;;;;;52.35;20.80;;;;;;;;;;5070104;28;20033;-69
2021/12/06 12:38:42;;;;;;;44.33;20.30;;;;;;;;;;5071530;28;20446;-68
2021/12/06 12:41:10;;;;;;;50.08;22.08;;;;;;;;;;5071052;28;20494;-68
2021/12/06 12:43:41;;;;;;;56.03;22.00;;;;;;;;;;5071324;28;20043;-69
2021/12/06 12:46:09;;;;;;;57.63;22.77;;;;;;;;;;5068124;28;20047;-69
2021/12/06 12:48:49;;;;;;;49.38;22.00;;;;;;;;;;5072456;28;20051;-69
2021/12/06 12:51:16;;;;;;;59.50;24.95;;;;;;;;;;5071622;28;20037;-67
2021/12/06 12:53:48;;;;;;;59.78;24.90;;;;;;;;;;5068752;28;20032;-67
2021/12/06 12:56:37;;;;;;;58.58;24.70;;;;;;;;;;5054572;28;20036;-67
2021/12/06 12:59:24;;;;;;;60.22;26.13;;;;;;;;;;5047175;28;20049;-69
2021/12/06 13:02:13;;;;;;;71.43;29.00;;;;;;;;;;5059845;28;20418;-68
2021/12/06 13:04:58;;;;;;;73.63;29.60;;;;;;;;;;5050157;28;20049;-68
2021/12/06 13:07:31;;;;;;;73.18;31.08;;;;;;;;;;5071815;28;20409;-68
2021/12/06 13:10:17;;;;;;;70.32;30.85;;;;;;;;;;5066691;28;20490;-67
2021/12/06 13:13:02;;;;;;;75.47;31.83;;;;;;;;;;5071340;28;20370;-68
2021/12/06 13:15:34;;;;;;;78.70;31.98;;;;;;;;;;5069168;28;20088;-69
2021/12/06 13:18:01;;;;;;;80.63;32.67;;;;;;;;;;5071122;28;20040;-68
2021/12/06 13:20:27;;;;;;;82.05;33.70;;;;;;;;;;5078478;28;20402;-68
2021/12/06 13:22:56;;;;;;;84.05;34.90;;;;;;;;;;5083001;28;20032;-67
2021/12/06 13:25:27;;;;;;;81.88;34.63;;;;;;;;;;5075177;28;20048;-68
2021/12/06 13:27:53;;;;;;;80.05;33.33;;;;;;;;;;5051923;28;20740;-68
2021/12/06 13:30:23;;;;;;;80.95;33.72;;;;;;;;;;5049251;28;20579;-69
2021/12/06 13:32:52;;;;;;;82.55;34.13;;;;;;;;;;5055128;28;20052;-69
2021/12/06 13:35:20;;;;;;;86.68;35.38;;;;;;;;;;5068481;28;20123;-68
2021/12/06 13:38:00;;;;;;;77.72;32.97;;;;;;;;;;5073372;28;20048;-68
2021/12/06 13:40:27;;;;;;;77.85;32.95;;;;;;;;;;5052593;28;20040;-69
2021/12/06 13:42:53;;;;;;;77.80;33.90;;;;;;;;;;5077170;28;20149;-68
2021/12/06 13:45:21;;;;;;;75.90;33.08;;;;;;;;;;5078669;28;20044;-68
2021/12/06 13:47:48;;;;;;;75.55;33.00;;;;;;;;;;5082299;28;20042;-68
2021/12/06 13:50:16;;;;;;;75.15;31.60;;;;;;;;;;5084547;28;20047;-68
2021/12/06 13:52:44;;;;;;;62.58;29.25;;;;;;;;;;5068784;28;20048;-70
2021/12/06 13:55:17;;;;;;;69.43;31.05;;;;;;;;;;5074142;28;20044;-68
2021/12/06 13:57:44;;;;;;;68.43;29.02;;;;;;;;;;5060495;28;20047;-68
2021/12/06 14:00:11;;;;;;;61.90;28.13;;;;;;;;;;5078830;28;20037;-68
2021/12/06 14:02:37;;;;;;;59.35;27.50;;;;;;;;;;5076203;28;20068;-68
2021/12/06 14:05:04;;;;;;;58.60;26.02;;;;;;;;;;5054598;28;20538;-69
2021/12/06 14:07:31;;;;;;;59.45;26.67;;;;;;;;;;5074893;28;20460;-69
2021/12/06 14:09:58;;;;;;;57.85;26.48;;;;;;;;;;5076183;28;20489;-68
2021/12/06 14:12:28;;;;;;;65.93;27.38;;;;;;;;;;5076151;28;20045;-68
2021/12/06 14:15:02;;;;;;;56.80;25.38;;;;;;;;;;5073389;28;20097;-68
2021/12/06 14:17:28;;;;;;;61.28;26.48;;;;;;;;;;5072992;28;20589;-70
2021/12/06 14:19:54;;;;;;;61.03;27.45;;;;;;;;;;5065458;28;20116;-69
2021/12/06 14:22:22;;;;;;;55.47;25.63;;;;;;;;;;5077540;28;20051;-70
2021/12/06 14:24:49;;;;;;;59.75;27.35;;;;;;;;;;5057344;28;20521;-69
2021/12/06 14:27:17;;;;;;;60.38;28.00;;;;;;;;;;5076031;28;20032;-69
2021/12/06 14:29:49;;;;;;;67.18;28.13;;;;;;;;;;5072127;28;20075;-69
2021/12/06 14:32:15;;;;;;;62.67;28.30;;;;;;;;;;5074233;28;20047;-70
2021/12/06 14:34:42;;;;;;;66.38;29.58;;;;;;;;;;5073868;28;20320;-70